createdAt,value
2023-05-16T00:01:00.933Z,74.28
2023-05-16T00:04:03.443Z,73.96
2023-05-16T00:07:05.505Z,74.31
2023-05-16T00:10:07.922Z,74.29
2023-05-16T00:13:09.348Z,73.81
2023-05-16T00:16:13.886Z,74.96
2023-05-16T00:19:15.351Z,74.93
2023-05-16T00:22:17.025Z,75.00
2023-05-16T00:25:18.540Z,74.63
2023-05-16T00:28:19.918Z,75.18
2023-05-16T00:31:22.067Z,74.96
2023-05-16T00:34:23.468Z,74.55
2023-05-16T00:37:24.995Z,74.23
2023-05-16T00:40:27.749Z,74.32
2023-05-16T00:43:29.184Z,74.37
2023-05-16T00:46:31.273Z,73.66
2023-05-16T00:49:32.686Z,76.01
2023-05-16T00:52:35.488Z,75.20
2023-05-16T00:55:37.555Z,75.00
2023-05-16T00:58:39.120Z,76.60
2023-05-16T01:01:41.394Z,74.72
2023-05-16T01:04:43.606Z,75.54
2023-05-16T01:07:45.053Z,75.20
2023-05-16T01:10:53.213Z,75.47
2023-05-16T01:14:09.129Z,75.95
2023-05-16T01:17:20.166Z,75.94
2023-05-16T01:20:32.795Z,76.27
2023-05-16T01:23:47.021Z,74.77
2023-05-16T01:26:49.929Z,74.77
2023-05-16T01:29:55.564Z,74.70
2023-05-16T01:32:56.934Z,75.15
2023-05-16T01:36:06.536Z,74.68
2023-05-16T01:39:15.230Z,74.96
2023-05-16T01:42:21.035Z,74.94
2023-05-16T01:45:27.963Z,73.59
2023-05-16T01:48:35.911Z,74.22
2023-05-16T01:51:40.957Z,75.04
2023-05-16T01:54:45.375Z,74.71
2023-05-16T01:57:49.785Z,75.58
2023-05-16T02:00:52.843Z,75.26
2023-05-16T02:03:54.461Z,74.42
2023-05-16T02:06:56.687Z,73.97
2023-05-16T02:09:58.084Z,74.73
2023-05-16T02:13:00.032Z,74.43
2023-05-16T02:16:01.518Z,74.66
2023-05-16T02:19:02.814Z,74.50
2023-05-16T02:22:04.610Z,74.02
2023-05-16T02:25:06.915Z,73.89
2023-05-16T02:28:08.876Z,72.95
2023-05-16T02:31:10.374Z,73.86
2023-05-16T02:34:11.741Z,74.78
2023-05-16T02:37:13.431Z,74.75
2023-05-16T02:40:15.137Z,74.00
2023-05-16T02:43:17.199Z,74.33
2023-05-16T02:46:23.304Z,75.34
2023-05-16T02:49:24.690Z,75.39
2023-05-16T02:52:26.188Z,73.75
2023-05-16T02:55:27.916Z,75.11
2023-05-16T02:58:29.902Z,74.64
2023-05-16T03:01:31.325Z,74.23
2023-05-16T03:04:32.815Z,74.15
2023-05-16T03:07:34.260Z,74.08
2023-05-16T03:10:35.627Z,74.59
2023-05-16T03:13:37.678Z,74.64
2023-05-16T03:16:41.046Z,73.36
2023-05-16T03:19:42.373Z,74.08
2023-05-16T03:22:44.589Z,73.98
2023-05-16T03:25:46.009Z,73.72
2023-05-16T03:28:48.179Z,74.54
2023-05-16T03:31:49.678Z,73.98
2023-05-16T03:34:51.860Z,73.78
2023-05-16T03:37:53.439Z,72.61
2023-05-16T03:40:54.723Z,73.28
2023-05-16T03:43:56.781Z,74.57
2023-05-16T03:46:58.223Z,73.91
2023-05-16T03:49:59.614Z,73.77
2023-05-16T03:53:01.019Z,73.80
2023-05-16T03:56:03.314Z,73.25
2023-05-16T03:59:05.378Z,73.75
2023-05-16T04:02:07.405Z,74.23
2023-05-16T04:05:09.722Z,73.77
2023-05-16T04:08:11.221Z,73.23
2023-05-16T04:11:12.525Z,72.93
2023-05-16T04:14:14.906Z,72.95
2023-05-16T04:17:16.188Z,73.77
2023-05-16T04:20:17.640Z,73.08
2023-05-16T04:23:19.076Z,73.40
2023-05-16T04:26:21.780Z,72.71
2023-05-16T04:29:23.841Z,73.44
2023-05-16T04:32:25.318Z,73.70
2023-05-16T04:35:28.052Z,71.89
2023-05-16T04:38:29.656Z,72.72
2023-05-16T04:41:31.136Z,72.63
2023-05-16T04:44:33.823Z,72.44
2023-05-16T04:47:36.026Z,73.89
2023-05-16T04:50:37.452Z,73.33
2023-05-16T04:53:38.717Z,73.60
2023-05-16T04:56:40.094Z,72.83
2023-05-16T04:59:42.314Z,72.99
2023-05-16T05:02:44.022Z,72.53
2023-05-16T05:05:45.744Z,72.69
2023-05-16T05:08:47.256Z,71.14
2023-05-16T05:11:48.568Z,71.72
2023-05-16T05:14:50.714Z,70.26
2023-05-16T05:17:52.257Z,71.48
2023-05-16T05:20:53.892Z,70.32
2023-05-16T05:23:55.194Z,70.64
2023-05-16T05:26:57.143Z,71.18
2023-05-16T05:29:59.178Z,71.38
2023-05-16T05:33:00.648Z,70.00
2023-05-16T05:36:03.973Z,70.86
2023-05-16T05:39:06.201Z,69.36
2023-05-16T05:42:07.784Z,68.51
2023-05-16T05:45:11.091Z,68.35
2023-05-16T05:48:12.701Z,70.31
2023-05-16T05:51:14.356Z,70.32
2023-05-16T05:54:15.751Z,70.40
2023-05-16T05:57:17.112Z,68.27
2023-05-16T06:00:19.589Z,68.27
2023-05-16T06:03:20.952Z,68.55
2023-05-16T06:06:22.437Z,68.07
2023-05-16T06:09:23.745Z,68.00
2023-05-16T06:12:25.140Z,66.96
2023-05-16T06:15:27.351Z,67.93
2023-05-16T06:18:29.199Z,67.17
2023-05-16T06:21:30.544Z,68.41
2023-05-16T06:24:31.904Z,69.12
2023-05-16T06:27:33.367Z,69.03
2023-05-16T06:30:35.532Z,67.79
2023-05-16T06:33:36.810Z,66.83
2023-05-16T06:36:38.352Z,66.45
2023-05-16T06:39:39.653Z,67.48
2023-05-16T06:42:41.129Z,67.47
2023-05-16T06:45:44.436Z,66.82
2023-05-16T06:48:45.765Z,67.80
2023-05-16T06:51:47.091Z,66.77
2023-05-16T06:54:48.454Z,66.45
2023-05-16T06:57:49.829Z,65.51
2023-05-16T07:00:51.960Z,65.51
2023-05-16T07:03:53.672Z,64.61
2023-05-16T07:06:55.243Z,65.45
2023-05-16T07:09:56.564Z,65.34
2023-05-16T07:12:58.091Z,65.24
2023-05-16T07:16:00.286Z,63.99
2023-05-16T07:19:01.912Z,64.57
2023-05-16T07:22:03.658Z,64.02
2023-05-16T07:25:06.155Z,63.70
2023-05-16T07:28:07.590Z,63.77
2023-05-16T07:31:09.673Z,62.96
2023-05-16T07:34:11.474Z,62.36
2023-05-16T07:37:13.186Z,61.76
2023-05-16T07:40:14.567Z,63.00
2023-05-16T07:43:16.026Z,62.72
2023-05-16T07:46:18.043Z,62.66
2023-05-16T07:49:19.504Z,62.59
2023-05-16T07:52:20.844Z,63.79
2023-05-16T07:55:22.754Z,62.95
2023-05-16T07:58:24.285Z,63.69
2023-05-16T08:01:26.397Z,63.10
2023-05-16T08:04:28.466Z,62.77
2023-05-16T08:07:30.853Z,63.16
2023-05-16T08:10:32.427Z,62.22
2023-05-16T08:13:33.932Z,61.01
2023-05-16T08:16:36.279Z,61.49
2023-05-16T08:19:37.838Z,60.97
2023-05-16T08:22:39.336Z,61.09
2023-05-16T08:25:40.680Z,60.28
2023-05-16T08:28:42.666Z,60.47
2023-05-16T08:31:44.776Z,59.78
2023-05-16T08:34:46.316Z,60.02
2023-05-16T08:37:47.861Z,59.98
2023-05-16T08:40:49.240Z,60.88
2023-05-16T08:43:50.847Z,60.43
2023-05-16T08:46:54.390Z,60.37
2023-05-16T08:49:57.822Z,60.15
2023-05-16T08:53:06.592Z,60.29
2023-05-16T08:56:09.605Z,60.83
2023-05-16T08:59:11.913Z,60.48
2023-05-16T09:02:14.106Z,59.98
2023-05-16T09:05:16.855Z,59.31
2023-05-16T09:08:19.607Z,58.76
2023-05-16T09:11:21.295Z,58.26
2023-05-16T09:14:22.835Z,57.94
2023-05-16T09:17:38.684Z,58.10
2023-05-16T09:20:46.381Z,57.25
2023-05-16T09:23:49.172Z,56.98
2023-05-16T09:26:50.647Z,55.63
2023-05-16T09:29:51.992Z,55.27
2023-05-16T09:32:54.184Z,56.50
2023-05-16T09:35:57.111Z,55.69
2023-05-16T09:38:58.687Z,56.28
2023-05-16T09:42:00.138Z,56.99
2023-05-16T09:45:04.671Z,56.81
2023-05-16T09:48:08.377Z,56.64
2023-05-16T09:51:12.409Z,57.70
2023-05-16T09:54:13.936Z,57.73
2023-05-16T09:57:18.321Z,58.47
2023-05-16T10:00:20.099Z,57.92
2023-05-16T10:03:23.024Z,58.52
2023-05-16T10:06:25.658Z,57.18
2023-05-16T10:09:28.142Z,57.04
2023-05-16T10:12:31.421Z,57.96
2023-05-16T10:15:33.938Z,57.82
2023-05-16T10:18:37.852Z,59.12
2023-05-16T10:21:45.352Z,59.06
2023-05-16T10:24:51.650Z,58.28
2023-05-16T10:27:54.636Z,59.32
2023-05-16T10:30:56.895Z,57.74
2023-05-16T10:33:59.594Z,57.32
2023-05-16T10:37:01.807Z,57.51
2023-05-16T10:40:05.116Z,57.79
2023-05-16T10:43:08.132Z,56.95
2023-05-16T10:46:11.044Z,56.78
2023-05-16T10:49:24.041Z,56.24
2023-05-16T10:52:33.366Z,55.46
2023-05-16T10:55:36.062Z,54.02
2023-05-16T10:58:44.711Z,53.02
2023-05-16T11:01:52.592Z,52.05
2023-05-16T11:04:56.321Z,50.42
2023-05-16T11:08:04.263Z,51.09
2023-05-16T11:11:38.967Z,51.99
2023-05-16T11:14:42.729Z,52.24
2023-05-16T11:17:46.091Z,50.88
2023-05-16T11:20:52.103Z,49.50
2023-05-16T11:24:27.019Z,48.06
2023-05-16T11:27:30.245Z,46.97
2023-05-16T11:30:32.423Z,46.16
2023-05-16T11:33:35.622Z,47.73
2023-05-16T11:36:39.740Z,47.53
2023-05-16T11:39:41.333Z,47.61
2023-05-16T11:42:44.653Z,48.96
2023-05-16T11:45:46.740Z,49.14
2023-05-16T11:48:48.627Z,47.12
2023-05-16T11:51:53.814Z,48.31
2023-05-16T11:54:57.289Z,46.46
2023-05-16T11:57:59.245Z,46.77
2023-05-16T12:01:04.244Z,45.83
2023-05-16T12:04:09.096Z,45.35
2023-05-16T12:07:11.259Z,43.10
2023-05-16T12:10:14.328Z,41.71
2023-05-16T12:13:16.767Z,40.02
2023-05-16T12:16:18.725Z,40.83
2023-05-16T12:19:21.337Z,40.54
2023-05-16T12:22:25.546Z,40.42
2023-05-16T12:25:29.221Z,41.45
2023-05-16T12:28:33.349Z,40.83
2023-05-16T12:31:37.326Z,40.92
2023-05-16T12:34:38.718Z,39.10
2023-05-16T12:37:43.453Z,37.85
2023-05-16T12:40:46.100Z,36.50
2023-05-16T12:43:47.861Z,36.67
2023-05-16T12:46:51.226Z,34.81
2023-05-16T12:49:53.641Z,34.32
2023-05-16T12:53:00.910Z,34.80
2023-05-16T12:56:02.327Z,34.40
2023-05-16T12:59:03.642Z,33.73
2023-05-16T13:02:05.434Z,34.35
2023-05-16T13:05:07.444Z,34.83
2023-05-16T13:08:09.458Z,34.61
2023-05-16T13:11:10.835Z,35.45
2023-05-16T13:14:12.238Z,35.20
2023-05-16T13:17:13.556Z,35.40
2023-05-16T13:20:15.530Z,36.05
2023-05-16T13:23:17.755Z,35.70
2023-05-16T13:26:19.088Z,34.28
2023-05-16T13:29:20.659Z,33.74
2023-05-16T13:32:22.393Z,34.76
2023-05-16T13:35:23.730Z,33.99
2023-05-16T13:38:25.816Z,33.93
2023-05-16T13:41:27.143Z,33.10
2023-05-16T13:44:28.633Z,33.89
2023-05-16T13:47:30.468Z,34.08
2023-05-16T13:50:33.824Z,35.61
2023-05-16T13:53:36.286Z,34.44
2023-05-16T13:56:37.756Z,33.50
2023-05-16T14:00:05.663Z,34.08
2023-05-16T14:03:00.838Z,34.01
2023-05-16T14:06:02.236Z,35.20
2023-05-16T14:09:04.477Z,34.41
2023-05-16T14:12:07.079Z,34.67
2023-05-16T14:15:09.223Z,32.96
2023-05-16T14:18:10.782Z,32.58
2023-05-16T14:21:12.638Z,33.25
2023-05-16T14:24:14.830Z,33.37
2023-05-16T14:27:16.361Z,33.23
2023-05-16T14:30:17.901Z,32.59
2023-05-16T14:33:19.351Z,33.85
2023-05-16T14:36:20.801Z,31.47
2023-05-16T14:39:22.904Z,32.48
2023-05-16T14:42:24.366Z,32.10
2023-05-16T14:45:25.996Z,31.10
2023-05-16T14:48:27.677Z,32.23
2023-05-16T14:51:29.174Z,33.15
2023-05-16T14:54:31.300Z,32.13
2023-05-16T14:57:32.601Z,33.41
2023-05-16T15:00:33.965Z,32.09
2023-05-16T15:03:53.747Z,30.92
2023-05-16T15:06:56.512Z,30.22
2023-05-16T15:09:58.618Z,29.88
2023-05-16T15:12:59.980Z,29.20
2023-05-16T15:16:01.386Z,30.61
2023-05-16T15:19:03.098Z,31.38
2023-05-16T15:22:07.055Z,31.51
2023-05-16T15:25:10.344Z,30.88
2023-05-16T15:28:11.681Z,30.85
2023-05-16T15:31:13.488Z,29.99
2023-05-16T15:34:15.019Z,29.77
2023-05-16T15:37:17.184Z,29.66
2023-05-16T15:40:22.296Z,29.37
2023-05-16T15:43:26.357Z,30.18
2023-05-16T15:46:29.900Z,29.46
2023-05-16T15:49:31.401Z,29.81
2023-05-16T15:52:35.184Z,30.12
2023-05-16T15:55:38.478Z,29.62
2023-05-16T15:58:39.862Z,30.00
2023-05-16T16:01:41.397Z,29.80
2023-05-16T16:04:42.851Z,30.17
2023-05-16T16:07:44.635Z,29.85
2023-05-16T16:10:46.994Z,30.25
2023-05-16T16:13:48.718Z,30.58
2023-05-16T16:16:50.477Z,31.13
2023-05-16T16:19:52.190Z,30.39
2023-05-16T16:22:53.733Z,30.73
2023-05-16T16:25:55.842Z,31.30
2023-05-16T16:28:57.188Z,30.84
2023-05-16T16:31:58.830Z,31.10
2023-05-16T16:35:00.937Z,30.43
2023-05-16T16:38:07.105Z,29.92
2023-05-16T16:41:10.388Z,29.94
2023-05-16T16:44:13.133Z,29.93
2023-05-16T16:47:14.593Z,29.78
2023-05-16T16:50:16.032Z,29.91
2023-05-16T16:53:18.052Z,29.87
2023-05-16T16:56:20.907Z,30.15
2023-05-16T16:59:22.255Z,30.49
2023-05-16T17:02:23.640Z,31.21
2023-05-16T17:05:25.383Z,31.69
2023-05-16T17:08:26.886Z,31.86
2023-05-16T17:11:29.079Z,33.26
2023-05-16T17:14:30.783Z,33.23
2023-05-16T17:17:32.115Z,33.29
2023-05-16T17:20:33.709Z,33.77
2023-05-16T17:23:35.063Z,33.56
2023-05-16T17:26:37.158Z,33.58
2023-05-16T17:29:38.668Z,34.59
2023-05-16T17:32:40.100Z,33.34
2023-05-16T17:35:41.524Z,33.87
2023-05-16T17:38:42.843Z,34.63
2023-05-16T17:41:45.161Z,34.77
2023-05-16T17:44:46.739Z,34.95
2023-05-16T17:47:48.452Z,35.64
2023-05-16T17:50:49.863Z,36.13
2023-05-16T17:53:51.967Z,36.45
2023-05-16T17:56:54.496Z,37.48
2023-05-16T17:59:56.010Z,36.94
2023-05-16T18:02:57.577Z,36.59
2023-05-16T18:05:59.226Z,36.42
2023-05-16T18:09:01.121Z,36.83
2023-05-16T18:12:03.816Z,37.17
2023-05-16T18:15:06.422Z,36.49
2023-05-16T18:18:08.032Z,36.15
2023-05-16T18:21:09.492Z,36.93
2023-05-16T18:24:12.434Z,37.18
2023-05-16T18:27:15.401Z,37.65
2023-05-16T18:30:16.880Z,38.05
2023-05-16T18:33:18.296Z,38.71
2023-05-16T18:36:19.780Z,39.53
2023-05-16T18:39:21.310Z,39.71
2023-05-16T18:42:24.922Z,39.53
2023-05-16T18:45:26.585Z,40.80
2023-05-16T18:48:28.215Z,40.44
2023-05-16T18:51:30.150Z,41.18
2023-05-16T18:54:31.451Z,40.94
2023-05-16T18:57:34.125Z,40.81
2023-05-16T19:00:35.504Z,41.36
2023-05-16T19:03:36.969Z,42.21
2023-05-16T19:06:38.458Z,42.33
2023-05-16T19:09:39.768Z,42.06
2023-05-16T19:12:46.011Z,42.86
2023-05-16T19:15:47.340Z,43.22
2023-05-16T19:18:49.430Z,42.23
2023-05-16T19:21:51.130Z,41.72
2023-05-16T19:24:52.580Z,42.06
2023-05-16T19:27:54.751Z,41.89
2023-05-16T19:30:56.388Z,41.75
2023-05-16T19:33:57.855Z,41.80
2023-05-16T19:37:03.198Z,41.72
2023-05-16T19:40:05.881Z,41.90
2023-05-16T19:43:08.567Z,42.16
2023-05-16T19:46:10.586Z,41.71
2023-05-16T19:49:12.249Z,41.75
2023-05-16T19:52:14.246Z,42.87
2023-05-16T19:55:16.075Z,41.83
2023-05-16T19:58:18.508Z,42.77
2023-05-16T20:01:20.228Z,43.23
2023-05-16T20:04:22.150Z,43.66
2023-05-16T20:07:23.636Z,43.77
2023-05-16T20:10:24.969Z,43.45
2023-05-16T20:13:27.094Z,44.56
2023-05-16T20:16:28.460Z,44.20
2023-05-16T20:19:29.959Z,44.64
2023-05-16T20:22:31.457Z,44.94
2023-05-16T20:25:32.811Z,44.98
2023-05-16T20:28:34.942Z,45.03
2023-05-16T20:31:36.311Z,45.69
2023-05-16T20:34:40.287Z,45.87
2023-05-16T20:37:42.907Z,45.89
2023-05-16T20:40:44.373Z,46.34
2023-05-16T20:43:46.508Z,46.74
2023-05-16T20:46:47.855Z,46.58
2023-05-16T20:49:49.304Z,46.61
2023-05-16T20:52:50.701Z,47.22
2023-05-16T20:55:52.224Z,47.63
2023-05-16T20:58:54.443Z,47.92
2023-05-16T21:01:56.679Z,47.78
2023-05-16T21:05:02.234Z,48.02
2023-05-16T21:08:11.759Z,48.52
2023-05-16T21:11:13.226Z,49.03
2023-05-16T21:14:15.436Z,49.07
2023-05-16T21:17:16.852Z,48.88
2023-05-16T21:20:18.433Z,48.83
2023-05-16T21:23:20.178Z,49.29
2023-05-16T21:26:21.581Z,48.87
2023-05-16T21:29:23.682Z,49.68
2023-05-16T21:32:27.522Z,49.67
2023-05-16T21:35:29.331Z,49.43
2023-05-16T21:38:30.926Z,50.03
2023-05-16T21:41:32.402Z,50.30
2023-05-16T21:44:34.551Z,50.52
2023-05-16T21:47:36.085Z,50.78
2023-05-16T21:50:37.647Z,50.87
2023-05-16T21:53:39.004Z,50.52
2023-05-16T21:56:40.525Z,50.86
2023-05-16T21:59:42.466Z,50.98
2023-05-16T22:02:44.477Z,50.89
2023-05-16T22:05:46.387Z,51.09
2023-05-16T22:08:47.832Z,51.26
2023-05-16T22:11:49.199Z,51.38
2023-05-16T22:14:51.352Z,51.12
2023-05-16T22:17:52.736Z,51.63
2023-05-16T22:20:54.223Z,51.73
2023-05-16T22:23:55.602Z,52.02
2023-05-16T22:26:57.047Z,52.00
2023-05-16T22:29:59.039Z,52.50
2023-05-16T22:33:00.730Z,52.09
2023-05-16T22:36:02.644Z,52.18
2023-05-16T22:39:04.141Z,52.33
2023-05-16T22:42:06.111Z,52.36
2023-05-16T22:45:08.825Z,52.97
2023-05-16T22:48:10.435Z,52.98
2023-05-16T22:51:11.926Z,53.05
2023-05-16T22:54:13.411Z,53.17
2023-05-16T22:57:14.815Z,53.57
2023-05-16T23:00:22.089Z,54.08
2023-05-16T23:03:23.622Z,54.26
2023-05-16T23:06:25.161Z,53.66
2023-05-16T23:09:26.685Z,54.02
2023-05-16T23:12:28.118Z,54.35
2023-05-16T23:15:30.469Z,53.70
2023-05-16T23:18:32.156Z,54.25
2023-05-16T23:21:33.762Z,54.25
2023-05-16T23:24:35.076Z,55.13
2023-05-16T23:27:36.523Z,55.07
2023-05-16T23:30:38.641Z,55.13
2023-05-16T23:33:39.968Z,55.66
2023-05-16T23:36:41.306Z,56.55
2023-05-16T23:39:42.767Z,56.09
2023-05-16T23:42:44.362Z,55.60
2023-05-16T23:45:46.632Z,55.86
2023-05-16T23:48:48.194Z,56.17
2023-05-16T23:51:57.259Z,56.39
2023-05-16T23:54:59.625Z,56.13
2023-05-16T23:58:01.073Z,56.20
